Time;durP1;ratioP1;P1;durP2;ratioP2;P2;SDS_P1;SDS_P2;PMS_P1;PMS_P2;Temp;Humidity;BMP_temperature;BMP_pressure;BME280_temperature;BME280_humidity;BME280_pressure;Samples;Min_cycle;Max_cycle;Signal;HPM_P1;HPM_P2
2021/01/09 00:02:28;;;;;;;4.90;2.57;;;7.30;99.90;;;;;;6097753;23;20773;-85
2021/01/09 00:04:58;;;;;;;3.97;2.20;;;7.20;99.90;;;;;;6099647;23;20236;-84
2021/01/09 00:07:34;;;;;;;4.10;2.53;;;7.20;99.90;;;;;;6098729;23;20181;-85
2021/01/09 00:10:06;;;;;;;4.43;2.00;;;7.30;99.90;;;;;;6104105;23;20182;-85
2021/01/09 00:12:39;;;;;;;2.60;2.10;;;7.30;99.90;;;;;;6103928;23;20197;-85
2021/01/09 00:15:15;;;;;;;3.43;2.00;;;7.30;99.90;;;;;;6106416;23;20181;-85
2021/01/09 00:17:46;;;;;;;2.20;2.00;;;7.30;99.90;;;;;;6108333;23;20178;-85
2021/01/09 00:20:19;;;;;;;4.97;2.10;;;7.20;99.90;;;;;;6085449;23;20243;-86
2021/01/09 00:22:50;;;;;;;3.17;1.60;;;7.20;99.90;;;;;;6110403;23;20204;-85
2021/01/09 00:25:22;;;;;;;3.53;1.70;;;7.20;99.90;;;;;;6109702;23;20297;-85
2021/01/09 00:27:54;;;;;;;4.83;1.23;;;7.30;99.90;;;;;;6108222;23;20182;-86
2021/01/09 00:30:31;;;;;;;3.40;1.53;;;7.20;99.90;;;;;;6107034;23;20194;-84
2021/01/09 00:33:01;;;;;;;4.50;1.63;;;7.20;99.90;;;;;;6106434;23;20628;-84
2021/01/09 00:35:32;;;;;;;6.97;2.00;;;7.20;99.90;;;;;;6107324;23;20251;-85
2021/01/09 00:38:06;;;;;;;6.00;1.67;;;7.20;99.90;;;;;;6107393;23;20197;-85
2021/01/09 00:40:37;;;;;;;4.83;1.70;;;7.10;99.90;;;;;;6084559;23;20166;-84
2021/01/09 00:43:09;;;;;;;5.80;1.77;;;7.10;99.90;;;;;;6118698;23;20162;-86
2021/01/09 00:45:44;;;;;;;4.53;1.77;;;7.00;99.90;;;;;;6121000;23;20225;-86
2021/01/09 00:48:15;;;;;;;2.57;1.50;;;6.90;99.90;;;;;;6119338;23;20180;-85
2021/01/09 00:50:45;;;;;;;2.77;1.60;;;6.90;99.90;;;;;;6119558;23;20186;-85
2021/01/09 00:53:15;;;;;;;5.73;2.10;;;6.80;99.90;;;;;;6115732;23;20174;-86
2021/01/09 00:55:47;;;;;;;2.73;1.60;;;6.70;99.90;;;;;;6105953;23;20179;-85
2021/01/09 00:58:19;;;;;;;2.60;1.77;;;6.60;99.90;;;;;;6103312;23;20688;-86
2021/01/09 01:00:51;;;;;;;6.50;2.07;;;6.50;99.90;;;;;;6103453;23;20226;-87
2021/01/09 01:03:21;;;;;;;4.63;1.70;;;6.40;99.90;;;;;;6105746;23;20179;-87
2021/01/09 01:05:53;;;;;;;4.47;2.17;;;6.30;99.90;;;;;;6105268;23;20705;-86
2021/01/09 01:11:16;;;;;;;9.13;2.40;;;6.20;99.90;;;;;;6113564;23;20183;-94
2021/01/09 01:13:50;;;;;;;6.20;1.90;;;6.10;99.90;;;;;;6117339;23;20207;-94
2021/01/09 01:16:24;;;;;;;3.67;1.83;;;6.00;99.90;;;;;;6113909;23;20206;-89
2021/01/09 01:18:56;;;;;;;4.73;2.03;;;5.90;99.90;;;;;;6109119;23;20206;-88
2021/01/09 01:21:32;;;;;;;5.67;2.80;;;5.90;99.90;;;;;;6108087;23;20188;-87
2021/01/09 01:24:08;;;;;;;4.40;2.33;;;5.80;99.90;;;;;;6104446;23;20552;-85
2021/01/09 01:26:39;;;;;;;6.03;3.23;;;5.80;99.90;;;;;;6101802;23;20269;-86
2021/01/09 01:29:13;;;;;;;7.23;2.63;;;5.70;99.90;;;;;;6104641;23;20183;-90
2021/01/09 01:31:45;;;;;;;5.73;2.27;;;5.60;99.90;;;;;;6112782;23;20179;-92
2021/01/09 01:34:17;;;;;;;4.67;2.50;;;5.50;99.90;;;;;;6114384;23;20205;-91
2021/01/09 01:36:51;;;;;;;3.50;2.13;;;5.50;99.90;;;;;;6111651;23;20179;-91
2021/01/09 01:39:25;;;;;;;5.77;2.17;;;5.50;99.90;;;;;;6088616;23;20183;-92
2021/01/09 01:41:57;;;;;;;4.50;2.17;;;5.40;99.90;;;;;;6113460;23;20168;-92
2021/01/09 01:44:31;;;;;;;5.87;2.00;;;5.40;99.90;;;;;;6113577;23;20594;-91
2021/01/09 01:47:07;;;;;;;5.13;2.70;;;5.40;99.90;;;;;;6086206;23;20214;-90
2021/01/09 01:49:37;;;;;;;4.23;2.30;;;5.40;99.90;;;;;;6083293;23;20178;-94
2021/01/09 01:52:13;;;;;;;2.60;1.83;;;5.30;99.90;;;;;;6110660;23;20202;-93
2021/01/09 01:54:45;;;;;;;3.57;2.53;;;5.30;99.90;;;;;;6110633;23;20178;-93
2021/01/09 01:57:15;;;;;;;5.80;2.57;;;5.30;99.90;;;;;;6111950;23;20241;-89
2021/01/09 01:59:47;;;;;;;4.27;2.27;;;5.20;99.90;;;;;;6062243;23;20238;-93
2021/01/09 02:02:25;;;;;;;4.90;3.07;;;5.00;99.90;;;;;;6100817;23;20179;-84
2021/01/09 02:05:00;;;;;;;4.20;3.17;;;5.10;99.90;;;;;;6079244;23;20380;-86
2021/01/09 02:07:37;;;;;;;5.90;3.73;;;5.10;99.90;;;;;;6076154;23;20199;-85
2021/01/09 02:10:11;;;;;;;8.17;4.53;;;5.00;99.90;;;;;;6101245;23;20182;-86
2021/01/09 02:12:48;;;;;;;8.53;5.87;;;5.00;99.90;;;;;;6102430;23;20171;-85
2021/01/09 02:15:21;;;;;;;6.00;5.40;;;4.90;99.90;;;;;;6077913;23;20171;-85
2021/01/09 02:17:54;;;;;;;7.87;3.83;;;4.90;99.90;;;;;;6101248;23;20186;-92
2021/01/09 02:20:28;;;;;;;5.50;2.53;;;4.90;99.90;;;;;;6114809;23;20179;-96
2021/01/09 02:23:00;;;;;;;6.00;2.80;;;4.90;99.90;;;;;;6108460;23;20516;-90
2021/01/09 02:25:36;;;;;;;5.27;2.93;;;4.90;99.90;;;;;;6111126;23;20175;-89
2021/01/09 02:28:07;;;;;;;6.87;2.70;;;4.90;99.90;;;;;;6107887;23;20209;-91
2021/01/09 02:30:40;;;;;;;7.37;3.90;;;4.90;99.90;;;;;;6084157;23;20190;-90
2021/01/09 02:33:15;;;;;;;4.37;2.77;;;4.80;99.90;;;;;;6108275;23;20227;-89
2021/01/09 02:35:47;;;;;;;6.60;3.87;;;4.70;99.90;;;;;;6085513;23;20222;-91
2021/01/09 02:38:20;;;;;;;7.03;4.57;;;4.70;99.90;;;;;;6109890;23;20179;-89
2021/01/09 02:40:52;;;;;;;4.67;3.47;;;4.70;99.90;;;;;;6083840;23;20183;-90
2021/01/09 02:43:28;;;;;;;7.63;5.57;;;4.70;99.90;;;;;;6107477;23;20183;-89
2021/01/09 02:46:00;;;;;;;11.43;6.63;;;4.70;99.90;;;;;;6107169;23;20222;-89
2021/01/09 02:48:31;;;;;;;6.87;5.30;;;4.60;99.90;;;;;;6108543;23;20176;-90
2021/01/09 02:51:02;;;;;;;7.50;5.17;;;4.70;99.90;;;;;;6112479;23;20199;-94
2021/01/09 02:53:34;;;;;;;11.20;6.27;;;4.70;99.90;;;;;;6112915;23;20191;-92
2021/01/09 02:56:05;;;;;;;9.43;7.40;;;4.70;99.90;;;;;;6115062;23;20190;-95
2021/01/09 02:58:40;;;;;;;10.83;6.70;;;4.70;99.90;;;;;;6089766;23;20194;-94
2021/01/09 03:01:12;;;;;;;7.57;5.17;;;4.60;99.90;;;;;;6122193;23;20178;-92
2021/01/09 03:03:43;;;;;;;7.90;4.50;;;4.60;99.90;;;;;;6121338;23;20182;-92
2021/01/09 03:06:13;;;;;;;6.63;4.90;;;4.50;99.90;;;;;;6098905;23;20218;-93
2021/01/09 03:08:45;;;;;;;9.40;4.97;;;4.50;99.90;;;;;;6121680;23;20316;-93
2021/01/09 03:11:21;;;;;;;5.43;3.17;;;4.50;99.90;;;;;;6119450;23;20183;-92
2021/01/09 03:13:52;;;;;;;7.77;3.83;;;4.40;99.90;;;;;;6119752;23;20198;-94
2021/01/09 03:16:23;;;;;;;6.17;3.60;;;4.30;99.90;;;;;;6117502;23;20175;-93
2021/01/09 03:24:31;;;;;;;6.37;5.17;;;4.20;99.90;;;;;;6142156;23;20593;-94
2021/01/09 03:29:36;;;;;;;7.47;5.00;;;4.10;99.90;;;;;;6148248;23;20253;-94
2021/01/09 03:32:08;;;;;;;5.43;4.87;;;4.10;99.90;;;;;;6146174;23;20258;-93
2021/01/09 03:34:40;;;;;;;8.33;6.20;;;4.10;99.90;;;;;;6119657;23;20166;-92
2021/01/09 03:37:13;;;;;;;10.13;7.47;;;3.90;99.90;;;;;;6144055;23;20206;-93
2021/01/09 03:39:46;;;;;;;12.30;8.30;;;3.90;99.90;;;;;;6142515;23;20182;-94
2021/01/09 03:42:18;;;;;;;10.23;6.57;;;3.90;99.90;;;;;;6117674;23;20181;-93
2021/01/09 03:44:50;;;;;;;9.47;6.10;;;3.90;99.90;;;;;;6141214;23;20194;-92
2021/01/09 03:47:21;;;;;;;8.80;5.60;;;3.90;99.90;;;;;;6141910;23;20205;-93
2021/01/09 03:49:53;;;;;;;9.53;6.00;;;3.80;99.90;;;;;;6094095;23;20175;-93
2021/01/09 03:52:24;;;;;;;8.53;5.80;;;3.80;99.90;;;;;;6146284;23;20182;-95
2021/01/09 03:54:56;;;;;;;8.17;7.33;;;3.80;99.90;;;;;;6149256;23;20166;-95
2021/01/09 03:57:27;;;;;;;8.57;6.87;;;3.80;99.90;;;;;;6123559;23;20170;-96
2021/01/09 03:59:58;;;;;;;8.83;6.47;;;3.80;99.90;;;;;;6149165;23;20178;-95
2021/01/09 04:02:29;;;;;;;8.00;6.60;;;3.70;99.90;;;;;;6133998;23;20218;-93
2021/01/09 04:05:05;;;;;;;7.23;4.97;;;3.70;99.90;;;;;;6146888;23;20193;-93
2021/01/09 04:07:36;;;;;;;6.73;4.57;;;3.70;99.90;;;;;;6148485;23;20233;-95
2021/01/09 04:10:13;;;;;;;8.17;5.63;;;3.60;99.90;;;;;;6150598;23;20180;-96
2021/01/09 04:12:46;;;;;;;10.27;7.03;;;3.60;99.90;;;;;;6128354;23;20202;-96
2021/01/09 04:26:18;;;;;;;13.17;8.83;;;3.50;99.90;;;;;;6100314;23;20228;-92
2021/01/09 04:28:50;;;;;;;14.47;8.23;;;3.50;99.90;;;;;;6150988;23;20177;-94
2021/01/09 04:31:21;;;;;;;9.53;7.27;;;3.50;99.90;;;;;;6152158;23;20222;-96
2021/01/09 04:33:55;;;;;;;12.50;7.93;;;3.40;99.90;;;;;;6150877;23;20218;-94
2021/01/09 04:36:27;;;;;;;9.97;8.00;;;3.40;99.90;;;;;;6123481;23;20170;-95
2021/01/09 04:38:58;;;;;;;12.30;9.77;;;3.40;99.90;;;;;;6150070;23;20178;-93
2021/01/09 04:41:30;;;;;;;13.00;8.60;;;3.30;99.90;;;;;;6148022;23;20194;-94
2021/01/09 04:44:02;;;;;;;12.37;9.17;;;3.30;99.90;;;;;;6148363;23;20178;-94
2021/01/09 04:46:39;;;;;;;13.83;11.20;;;3.30;99.90;;;;;;6148637;23;20202;-94
2021/01/09 04:49:13;;;;;;;13.90;10.27;;;3.20;99.90;;;;;;6149837;23;20238;-94
2021/01/09 04:51:44;;;;;;;13.77;10.83;;;3.20;99.90;;;;;;6148545;23;20226;-95
2021/01/09 04:54:20;;;;;;;17.77;12.20;;;3.20;99.90;;;;;;6148416;23;20177;-96
2021/01/09 04:59:49;;;;;;;16.73;13.03;;;3.10;99.90;;;;;;6149926;23;20170;-94
2021/01/09 05:02:20;;;;;;;16.80;13.20;;;3.20;99.90;;;;;;6144964;23;20165;-94
2021/01/09 05:04:53;;;;;;;24.17;12.27;;;3.10;99.90;;;;;;6144544;23;20181;-96
2021/01/09 05:07:24;;;;;;;36.43;15.03;;;3.10;99.90;;;;;;6142651;23;20202;-95
2021/01/09 05:10:04;;;;;;;21.20;12.10;;;3.20;99.90;;;;;;6146715;23;20170;-94
2021/01/09 05:12:37;;;;;;;19.13;11.33;;;3.20;99.90;;;;;;6148086;23;20185;-94
2021/01/09 05:15:10;;;;;;;35.10;11.63;;;3.20;99.90;;;;;;6150759;23;20165;-95
2021/01/09 05:17:41;;;;;;;37.00;11.60;;;3.10;99.90;;;;;;6149116;23;20167;-96
2021/01/09 05:20:13;;;;;;;25.57;11.93;;;3.20;99.90;;;;;;6124354;23;20510;-92
2021/01/09 05:22:46;;;;;;;26.77;10.43;;;3.10;99.90;;;;;;6126708;23;20182;-96
2021/01/09 05:25:33;;;;;;;24.33;11.13;;;2.90;99.90;;;;;;6150406;23;20197;-94
2021/01/09 05:28:17;;;;;;;21.77;12.33;;;3.00;99.90;;;;;;6150024;23;20248;-96
2021/01/09 05:31:05;;;;;;;65.43;34.47;;;3.00;99.90;;;;;;6091970;23;20294;-96
2021/01/09 05:33:37;;;;;;;47.60;19.77;;;3.00;99.90;;;;;;6121232;23;20175;-96
2021/01/09 05:36:15;;;;;;;15.93;9.10;;;2.90;99.90;;;;;;6121389;23;20195;-96
2021/01/09 05:38:47;;;;;;;21.80;12.40;;;2.80;99.90;;;;;;6120855;23;20290;-95
2021/01/09 05:41:21;;;;;;;14.87;9.07;;;2.80;99.90;;;;;;6121462;23;20251;-96
2021/01/09 05:44:02;;;;;;;17.60;8.63;;;2.80;99.90;;;;;;6122112;23;20249;-95
2021/01/09 05:46:34;;;;;;;29.80;8.30;;;2.70;99.90;;;;;;6122080;23;20200;-96
2021/01/09 05:49:09;;;;;;;31.03;8.90;;;2.60;99.90;;;;;;6121503;23;20176;-96
2021/01/09 05:54:41;;;;;;;12.90;9.87;;;2.60;99.90;;;;;;6120748;23;20224;-96
2021/01/09 05:57:18;;;;;;;21.07;14.70;;;2.50;99.90;;;;;;6120400;23;20166;-95
2021/01/09 05:59:51;;;;;;;54.27;33.37;;;2.50;99.90;;;;;;6120027;23;20206;-92
2021/01/09 06:02:23;;;;;;;29.17;15.63;;;2.50;99.90;;;;;;6119597;23;20182;-96
2021/01/09 06:05:00;;;;;;;46.30;9.40;;;2.50;99.90;;;;;;6118587;23;20233;-96
2021/01/09 06:07:36;;;;;;;60.47;8.33;;;2.50;99.90;;;;;;6109339;23;20237;-96
2021/01/09 06:10:17;;;;;;;43.90;8.60;;;2.50;99.90;;;;;;6113426;23;20179;-95
2021/01/09 06:17:56;;;;;;;42.40;7.10;;;2.60;99.90;;;;;;6141228;23;20182;-92
2021/01/09 06:20:28;;;;;;;61.90;7.07;;;2.60;99.90;;;;;;6112550;23;20182;-94
2021/01/09 06:23:01;;;;;;;89.43;7.27;;;2.60;99.90;;;;;;6137933;23;20178;-95
2021/01/09 06:36:24;;;;;;;73.17;6.20;;;2.60;99.90;;;;;;6069595;23;21592;-91
2021/01/09 06:38:57;;;;;;;44.97;4.97;;;2.70;99.90;;;;;;6125920;23;20216;-96
2021/01/09 17:17:23;;;;;;;5.60;2.30;;;0.40;99.90;;;;;;6117231;23;20255;-96
2021/01/09 17:22:51;;;;;;;4.07;2.67;;;0.50;99.90;;;;;;5988499;23;3201921;-96
2021/01/09 17:25:24;;;;;;;6.43;3.40;;;0.60;99.90;;;;;;6124316;23;20171;-96
2021/01/09 17:27:59;;;;;;;3.63;2.93;;;0.60;99.90;;;;;;6125828;23;20215;-97
2021/01/09 17:41:15;;;;;;;2.93;2.30;;;1.00;99.90;;;;;;6122679;23;20245;-96
2021/01/09 17:43:47;;;;;;;2.73;1.80;;;1.10;99.90;;;;;;6146286;23;20181;-96
2021/01/09 17:46:26;;;;;;;2.87;1.87;;;1.20;99.90;;;;;;6145573;23;20180;-96
2021/01/09 17:48:59;;;;;;;3.57;2.33;;;1.30;99.90;;;;;;6148890;23;20186;-96
2021/01/09 17:51:32;;;;;;;5.13;2.30;;;1.40;99.90;;;;;;6148734;23;20210;-96
2021/01/09 17:54:04;;;;;;;3.30;2.20;;;1.40;99.90;;;;;;6124509;23;20158;-96
2021/01/09 17:56:37;;;;;;;3.53;2.13;;;1.40;99.90;;;;;;6122901;23;20166;-96
2021/01/09 17:59:14;;;;;;;3.27;2.00;;;1.40;99.90;;;;;;6150652;23;20170;-96
2021/01/09 18:01:46;;;;;;;3.10;2.23;;;1.50;99.90;;;;;;6119205;23;20167;-96
2021/01/09 18:04:37;;;;;;;3.20;2.30;;;1.50;99.90;;;;;;6138605;23;20212;-96
2021/01/09 18:07:08;;;;;;;3.00;2.23;;;1.60;99.90;;;;;;6143541;23;20241;-96
2021/01/09 18:12:37;;;;;;;2.77;1.97;;;1.70;99.90;;;;;;6132647;23;20210;-96
2021/01/09 18:15:10;;;;;;;4.87;2.70;;;1.80;99.90;;;;;;6146083;23;20184;-95
2021/01/09 18:17:42;;;;;;;5.00;2.77;;;1.80;99.90;;;;;;6143466;23;20192;-96
2021/01/09 18:20:14;;;;;;;4.07;2.77;;;2.00;99.90;;;;;;6148744;23;20237;-96
2021/01/09 18:23:01;;;;;;;4.83;2.77;;;2.00;99.90;;;;;;6106252;23;20179;-96
2021/01/09 18:25:52;;;;;;;3.87;2.57;;;2.10;99.90;;;;;;6147292;23;20185;-95
2021/01/09 18:28:27;;;;;;;4.47;2.33;;;2.20;99.90;;;;;;6147596;23;20202;-96
2021/01/09 18:30:59;;;;;;;5.13;2.73;;;2.30;99.90;;;;;;6148412;23;20203;-96
2021/01/09 18:33:30;;;;;;;5.47;2.67;;;2.40;99.90;;;;;;6127041;23;20186;-96
2021/01/09 18:36:02;;;;;;;3.00;2.50;;;2.50;99.90;;;;;;6151343;23;20201;-96
2021/01/09 18:38:34;;;;;;;5.03;2.60;;;2.70;99.90;;;;;;6117384;23;20197;-96
2021/01/09 18:41:05;;;;;;;4.43;2.30;;;2.80;99.90;;;;;;6180803;23;20162;-96
2021/01/09 18:43:39;;;;;;;4.00;1.77;;;2.90;99.90;;;;;;6181184;23;20161;-96
2021/01/09 18:46:31;;;;;;;3.77;2.10;;;3.10;99.90;;;;;;6160284;23;20186;-92
2021/01/09 18:49:03;;;;;;;2.90;1.80;;;3.30;99.90;;;;;;6151538;23;20166;-96
2021/01/09 18:51:59;;;;;;;6.30;1.77;;;3.40;99.90;;;;;;6142338;23;20237;-96
2021/01/09 18:54:51;;;;;;;2.20;1.37;;;3.60;99.90;;;;;;6169862;23;20182;-96
2021/01/09 18:57:22;;;;;;;1.73;1.13;;;3.80;99.90;;;;;;6168713;23;20178;-96
2021/01/09 19:02:59;;;;;;;3.13;1.63;;;3.90;99.90;;;;;;5149754;27;20591;-96
2021/01/09 19:05:31;;;;;;;3.40;1.67;;;3.90;99.90;;;;;;5136560;27;20220;-96
2021/01/09 19:08:25;;;;;;;3.57;1.90;;;3.90;99.90;;;;;;5147839;27;20571;-96
2021/01/09 19:11:24;;;;;;;6.03;2.30;;;3.90;99.90;;;;;;5116017;28;20321;-95
2021/01/09 19:13:55;;;;;;;4.13;1.80;;;4.00;99.90;;;;;;5118060;28;20232;-96
2021/01/09 19:16:38;;;;;;;4.07;1.97;;;4.10;99.90;;;;;;5098159;28;20260;-96
2021/01/09 19:19:12;;;;;;;3.10;1.53;;;4.10;99.90;;;;;;5124213;28;20710;-96
2021/01/09 19:21:45;;;;;;;2.60;1.80;;;4.20;99.90;;;;;;5121654;27;20303;-96
2021/01/09 19:24:24;;;;;;;4.07;1.73;;;4.30;99.90;;;;;;5121903;28;20661;-96
2021/01/09 19:26:59;;;;;;;4.20;1.90;;;4.40;99.90;;;;;;5097943;28;20240;-96
2021/01/09 19:29:30;;;;;;;2.70;2.30;;;4.50;99.90;;;;;;5097978;28;20210;-96
2021/01/09 19:32:02;;;;;;;4.83;2.70;;;4.50;99.90;;;;;;5121066;28;20279;-96
2021/01/09 19:34:34;;;;;;;5.97;3.03;;;4.60;99.90;;;;;;5126913;27;20206;-96
2021/01/09 19:37:06;;;;;;;3.33;2.20;;;4.80;99.90;;;;;;5126996;28;20209;-96
2021/01/09 19:39:39;;;;;;;4.90;2.70;;;4.90;99.90;;;;;;5132809;28;20205;-96
2021/01/09 19:42:12;;;;;;;3.63;2.27;;;5.00;99.90;;;;;;5126651;28;20219;-96
2021/01/09 19:44:44;;;;;;;3.00;2.30;;;5.10;99.90;;;;;;5118147;28;20198;-96
2021/01/09 19:47:15;;;;;;;4.73;2.93;;;5.10;99.90;;;;;;5127235;27;20240;-96
2021/01/09 19:49:49;;;;;;;5.63;2.87;;;5.10;99.90;;;;;;5129285;28;20198;-96
2021/01/09 19:52:21;;;;;;;3.03;2.50;;;5.20;99.90;;;;;;5123886;28;20579;-94
2021/01/09 19:54:53;;;;;;;5.13;2.47;;;5.10;99.90;;;;;;5119286;28;20217;-96
2021/01/09 19:57:26;;;;;;;4.47;2.90;;;5.00;99.90;;;;;;5127326;28;20205;-96
2021/01/09 20:00:01;;;;;;;5.43;3.50;;;5.00;99.90;;;;;;5120765;28;20283;-96
2021/01/09 20:02:33;;;;;;;5.07;3.27;;;5.00;99.90;;;;;;5116096;28;20213;-96
2021/01/09 20:05:07;;;;;;;6.00;3.40;;;5.00;99.90;;;;;;5120140;27;20227;-96
2021/01/09 20:07:40;;;;;;;5.60;3.53;;;5.10;99.90;;;;;;5111865;28;20213;-94
2021/01/09 20:13:06;;;;;;;5.20;3.77;;;5.20;99.90;;;;;;5124637;28;20206;-96
2021/01/09 20:15:39;;;;;;;6.10;3.27;;;5.30;99.90;;;;;;5111525;28;20266;-96
2021/01/09 20:18:14;;;;;;;7.13;3.73;;;5.40;99.90;;;;;;5110535;28;20199;-95
2021/01/09 20:20:49;;;;;;;5.83;3.83;;;5.50;99.90;;;;;;5101892;28;20262;-94
2021/01/09 20:23:20;;;;;;;4.23;3.17;;;5.50;99.90;;;;;;5115541;27;20199;-96
2021/01/09 20:25:53;;;;;;;3.57;2.70;;;5.40;99.90;;;;;;5114746;28;20244;-96
2021/01/09 20:28:25;;;;;;;4.50;3.00;;;5.40;99.90;;;;;;5116596;28;20197;-96
2021/01/09 20:31:00;;;;;;;3.93;3.00;;;5.30;99.90;;;;;;5124917;27;20224;-96
2021/01/09 20:33:33;;;;;;;3.67;2.73;;;5.30;99.90;;;;;;5119033;28;20198;-96
2021/01/09 20:44:13;;;;;;;5.37;3.43;;;5.50;99.90;;;;;;5262234;23;20276;-96
2021/01/09 20:46:52;;;;;;;4.03;2.80;;;5.60;99.90;;;;;;5026632;28;20194;-96
2021/01/09 20:49:26;;;;;;;5.73;3.20;;;5.70;99.90;;;;;;5036088;28;20270;-95
2021/01/09 20:51:58;;;;;;;7.87;4.70;;;5.80;99.90;;;;;;5032168;28;20229;-96
2021/01/09 20:54:29;;;;;;;7.43;4.60;;;5.90;99.90;;;;;;5020633;28;20198;-96
2021/01/09 20:57:02;;;;;;;4.80;3.70;;;5.90;99.90;;;;;;5013126;28;20206;-96
2021/01/09 20:59:36;;;;;;;5.80;3.70;;;6.00;99.90;;;;;;5017803;28;20198;-96
2021/01/09 21:02:07;;;;;;;7.13;4.83;;;6.10;99.90;;;;;;5045970;28;20292;-96
2021/01/09 21:04:44;;;;;;;4.13;2.47;;;6.10;99.90;;;;;;5038168;28;20265;-96
2021/01/09 21:07:16;;;;;;;4.23;2.70;;;6.30;99.90;;;;;;5025412;28;20285;-96
2021/01/09 21:10:05;;;;;;;3.63;3.23;;;6.30;99.90;;;;;;5102140;23;20226;-96
2021/01/09 21:12:36;;;;;;;3.87;3.00;;;6.40;99.90;;;;;;5011589;28;20257;-96
2021/01/09 21:15:13;;;;;;;4.93;3.53;;;6.60;99.90;;;;;;5013729;28;20190;-96
2021/01/09 21:17:49;;;;;;;5.87;4.00;;;6.60;99.90;;;;;;5005375;28;20202;-96
2021/01/09 21:20:22;;;;;;;6.80;6.10;;;6.50;99.90;;;;;;5009641;28;20623;-96
2021/01/09 21:22:55;;;;;;;7.07;3.93;;;6.50;99.90;;;;;;5014197;28;20218;-96
2021/01/09 21:25:33;;;;;;;4.77;3.90;;;6.60;99.90;;;;;;5013279;28;20210;-96
2021/01/09 21:28:13;;;;;;;5.13;3.97;;;6.60;99.90;;;;;;5015778;28;20246;-96
2021/01/09 21:33:37;;;;;;;5.43;3.87;;;6.80;99.90;;;;;;5632384;23;20225;-97
2021/01/09 21:46:49;;;;;;;4.60;3.83;;;7.40;99.90;;;;;;5033443;28;20251;-96
2021/01/09 21:49:29;;;;;;;8.40;3.90;;;7.40;99.90;;;;;;5036003;28;20210;-96
2021/01/09 22:56:31;;;;;;;2.10;1.00;;;7.70;99.90;;;;;;5060899;23;20247;-93
2021/01/09 23:01:37;;;;;;;1.13;0.70;;;7.70;99.90;;;;;;5033603;28;20247;-96
2021/01/09 23:04:09;;;;;;;1.40;0.70;;;7.70;99.90;;;;;;5036263;28;20279;-96
2021/01/09 23:25:39;;;;;;;1.07;0.73;;;7.50;99.90;;;;;;5030286;28;20250;-95
2021/01/09 23:28:11;;;;;;;1.47;0.90;;;7.60;99.90;;;;;;5030951;28;20212;-96
2021/01/09 23:30:50;;;;;;;1.80;0.80;;;7.60;99.90;;;;;;5031913;28;20262;-96
2021/01/09 23:33:36;;;;;;;1.47;1.07;;;7.60;99.90;;;;;;5034036;28;20204;-96
2021/01/09 23:36:08;;;;;;;1.57;1.10;;;7.60;99.90;;;;;;5034409;28;20204;-96
2021/01/09 23:38:43;;;;;;;1.10;0.90;;;7.50;99.90;;;;;;5034512;28;20210;-96
